< < Back
Terminal Aerodrome Forecast


Current Version              Previous Versions:   1  2  3  4  5  6  7  8  9  

Terminal Aerodrome Forecast

628
FTUS42 KTAE 010700 AAA
TAFDHN
TAF AMD
KDHN 010759Z 0108/0206 08008KT 2SM -DZ BR OVC004
     FM011400 08007KT P6SM OVC009
     FM012000 07005KT P6SM OVC012
     FM020100 06004KT 4SM BR OVC006=

Latest METAR

851
SAUS70 KWBC 011500 RRX
MTRDHN
METAR KDHN 011453Z 07008KT 3/4SM BR OVC002 07/07 A3047 RMK AO2 SLP318
T00720072 51010 $


USA.gov is the U.S. government's official web portal to all federal, state and local government web resources and services.